Latest Weather Observations for Robe Airport

IDS60801

Issued at 7:31 pm CST Thursday 29 September 2016 (issued every 30 minutes, with the page automatically refreshed every 10 minutes)

About weather observations | Map of weather stations | Latest weather observations for SA | Other Formats
Station Details ID: 026105 Name: ROBE AIRFIELD Lat: -37.18 Lon: 139.81 Height: 3.0 m
Data from the previous 72 hours. | See also: Recent months at Robe Airport
Date/Time
CST
Temp
°C
App
Temp
°C
Dew
Point
°C
Rel
Hum
%
Delta-T
°C
Wind Press
QNH
hPa
Press
MSL
hPa
Rain since
9am
mm
Dir  Spd
km/h
Gust
km/h
Spd
kts
Gust
kts
29/07:30pm 10.4 8.0 8.5 88 0.9 SSE 11 17 6 9 989.0 989.0 0.6
29/07:00pm 10.8 8.3 8.0 83 1.4 SSE 11 13 6 7 988.5 988.5 0.0
29/06:30pm 10.9 9.2 8.3 84 1.3 S 7 11 4 6 988.0 988.0 0.0
29/06:00pm 10.9 8.4 8.0 82 1.4 SSW 11 15 6 8 987.3 987.3 0.0
29/05:30pm 11.2 8.6 7.9 80 1.6 SSW 11 15 6 8 986.8 986.8 0.0
29/05:00pm 11.7 9.1 7.6 76 2.0 SSW 11 15 6 8 986.4 986.4 0.0
29/04:30pm 12.4 9.4 7.5 72 2.4 SSW 13 19 7 10 985.8 985.8 0.0
29/04:00pm 12.7 10.1 7.8 72 2.4 SSW 11 17 6 9 985.3 985.3 0.0
29/03:30pm 13.0 11.0 8.7 75 2.2 SW 9 13 5 7 984.9 984.9 0.0
29/03:00pm 12.2 10.7 9.0 81 1.6 WSW 7 11 4 6 984.8 984.8 0.0
29/02:30pm 12.0 10.6 9.0 82 1.5 W 6 7 3 4 984.7 984.7 0.0
29/02:00pm 12.6 10.9 7.7 72 2.4 SE 6 11 3 6 984.5 984.5 0.0
29/01:30pm 12.8 10.7 6.8 67 2.9 E 7 13 4 7 984.5 984.5 0.0
29/01:00pm 12.9 10.7 7.8 71 2.5 ENE 9 17 5 9 984.3 984.3 0.0
29/12:30pm 12.9 9.9 9.4 79 1.8 ENE 15 20 8 11 984.2 984.2 0.0
29/12:00pm 12.2 7.9 7.7 74 2.2 NE 20 26 11 14 984.2 984.2 0.0
29/11:30am 12.8 8.9 8.7 76 2.1 NE 19 28 10 15 984.2 984.2 0.0
29/11:00am 11.1 7.3 7.4 78 1.8 NE 17 24 9 13 984.3 984.3 0.0
29/10:30am 11.3 7.4 7.2 76 2.0 NNE 17 24 9 13 984.2 984.2 0.0
29/10:00am 10.8 6.2 6.6 75 2.0 NNE 20 28 11 15 984.0 984.0 0.0
29/09:30am 10.7 6.1 6.5 75 2.0 NNE 20 30 11 16 983.7 983.7 0.0
29/09:00am 10.7 5.0 6.8 77 1.9 NNE 26 33 14 18 983.6 983.6 22.6
29/08:30am 10.1 5.2 7.0 81 1.5 NNE 22 32 12 17 983.6 983.6 22.6
29/08:00am 9.0 4.0 6.6 85 1.1 NNE 22 35 12 19 983.6 983.6 22.6
29/07:30am 8.3 3.6 5.9 85 1.1 NNE 20 32 11 17 983.7 983.7 22.6
29/07:00am 7.8 3.1 6.1 89 0.8 NE 20 28 11 15 983.6 983.6 22.6
29/06:30am 7.4 2.7 5.9 90 0.7 NNE 20 28 11 15 983.6 983.6 22.6
29/06:00am 7.6 2.1 6.1 90 0.7 NNE 24 32 13 17 983.5 983.5 22.6
29/05:30am 7.6 2.5 6.1 90 0.7 NNE 22 32 12 17 983.2 983.2 22.6
29/05:00am 8.5 4.2 7.0 90 0.7 NNE 19 26 10 14 983.5 983.5 22.6
29/04:30am 9.7 6.2 7.1 84 1.2 N 15 24 8 13 983.3 983.3 22.0
29/04:00am 10.1 4.8 6.6 79 1.6 N 24 33 13 18 983.5 983.5 22.0
29/03:30am 9.8 4.1 6.9 82 1.4 N 26 33 14 18 983.7 983.7 22.0
29/03:00am 11.0 4.5 6.7 75 2.1 NNW 30 44 16 24 983.8 983.8 22.0
29/02:30am 10.4 4.0 7.1 80 1.6 NW 30 46 16 25 984.2 984.2 22.0
29/02:00am 11.3 4.8 6.4 72 2.3 NW 30 44 16 24 984.6 984.6 22.0
29/01:30am 11.0 5.3 6.7 75 2.1 NW 26 37 14 20 985.0 985.0 22.0
29/01:00am 9.4 1.0 5.8 78 1.6 WNW 39 61 21 33 985.7 985.7 21.8
29/12:52am 11.8 5.4 6.9 72 2.3 NW 30 50 16 27 985.7 985.7 21.2
29/12:30am 11.5 6.3 7.4 76 2.0 WNW 24 37 13 20 985.5 985.5 21.2
29/12:00am 10.8 6.9 8.7 87 1.0 WNW 19 32 10 17 985.7 985.7 21.2
 
Date/Time
CST
Temp
°C
App
Temp
°C
Dew
Point
°C
Rel
Hum
%
Delta-T
°C
Wind Press
QNH
hPa
Press
MSL
hPa
Rain since
9am
mm
Dir  Spd
km/h
Gust
km/h
Spd
kts
Gust
kts
28/11:45pm 10.3 4.7 8.6 89 0.8 WNW 28 48 15 26 985.8 985.8 21.0
28/11:30pm 11.1 6.9 9.7 91 0.7 WNW 22 43 12 23 985.6 985.6 20.6
28/11:00pm 10.7 5.3 9.6 93 0.6 WNW 28 41 15 22 985.4 985.4 20.6
28/10:30pm 11.4 6.9 10.0 91 0.7 WNW 24 44 13 24 985.6 985.6 20.2
28/10:00pm 11.8 8.4 11.3 97 0.3 N 20 30 11 16 985.5 985.5 20.2
28/09:30pm 12.0 9.3 11.7 98 0.2 NNE 17 22 9 12 986.1 986.1 20.2
28/09:00pm 11.8 9.7 11.3 97 0.3 ENE 13 20 7 11 986.6 986.6 20.2
28/08:30pm 11.7 9.2 11.2 97 0.3 ENE 15 24 8 13 987.0 987.0 19.8
28/08:00pm 11.7 6.8 11.2 97 0.3 ENE 28 39 15 21 987.7 987.7 15.8
28/07:30pm 11.8 6.1 11.2 96 0.3 NE 32 43 17 23 988.1 988.1 11.8
28/07:00pm 11.9 6.9 11.1 95 0.4 NE 28 48 15 26 989.4 989.4 10.0
28/06:50pm 11.8 6.8 11.0 95 0.4 NE 28 50 15 27 989.4 989.4 9.8
28/06:30pm 11.6 9.0 10.7 94 0.5 NNE 15 24 8 13 990.2 990.2 9.0
28/06:06pm 11.9 6.9 10.8 93 0.6 NE 28 46 15 25 991.0 991.0 5.0
28/06:00pm 11.9 5.5 10.6 92 0.7 NE 35 48 19 26 990.3 990.3 4.2
28/05:43pm 11.8 6.7 10.7 93 0.6 NE 28 46 15 25 989.9 989.9 3.4
28/05:30pm 11.8 5.4 10.7 93 0.6 NE 35 50 19 27 990.4 990.4 2.6
28/05:00pm 12.1 4.9 10.7 91 0.7 NE 39 56 21 30 991.0 991.0 2.2
28/04:53pm 12.0 5.2 10.6 91 0.7 NE 37 56 20 30 990.9 990.9 2.2
28/04:30pm 12.3 5.5 10.7 90 0.8 NNE 37 52 20 28 991.6 991.6 2.0
28/04:04pm 12.6 6.1 10.3 86 1.2 NNE 35 65 19 35 992.4 992.4 2.0
28/04:00pm 12.6 6.5 10.3 86 1.2 NNE 33 46 18 25 992.7 992.7 2.0
28/03:50pm 12.7 6.2 10.2 85 1.3 NNE 35 54 19 29 993.1 993.1 2.0
28/03:30pm 13.6 6.4 9.1 74 2.3 N 37 56 20 30 994.0 994.0 0.4
28/03:00pm 15.6 8.6 8.6 63 3.6 NNE 35 59 19 32 994.5 994.5 0.0
28/02:59pm 15.9 9.4 8.9 63 3.6 NNE 33 59 18 32 994.6 994.6 0.0
28/02:30pm 16.5 9.8 8.0 57 4.3 NNE 33 44 18 24 995.0 995.0 0.0
28/02:00pm 16.9 10.4 8.3 57 4.4 NNE 32 43 17 23 996.2 996.2 0.0
28/01:30pm 16.6 10.7 9.1 61 3.9 NNE 30 43 16 23 997.0 997.0 0.0
28/01:00pm 16.7 10.3 8.7 59 4.1 NNE 32 43 17 23 997.7 997.7 0.0
28/12:40pm 16.9 11.0 9.1 60 4.0 NNE 30 48 16 26 998.5 998.5 0.0
28/12:30pm 16.9 11.0 9.1 60 4.1 NNE 30 37 16 20 998.8 998.8 0.0
28/12:00pm 16.8 10.9 9.0 60 4.1 NNE 30 41 16 22 999.1 999.1 0.0
28/11:30am 16.7 10.8 8.9 60 4.0 NNE 30 43 16 23 1000.0 1000.0 0.0
28/11:00am 17.6 12.0 10.0 61 4.0 NNE 30 44 16 24 1001.7 1001.7 0.0
28/10:30am 16.5 10.1 8.5 59 4.1 NNE 32 43 17 23 1002.6 1002.6 0.0
28/10:00am 15.8 9.3 8.3 61 3.8 NNE 32 46 17 25 1003.4 1003.4 0.0
28/09:30am 14.7 8.1 7.7 63 3.5 NNE 32 48 17 26 1004.7 1004.7 0.0
28/09:00am 14.5 8.8 8.5 67 3.0 NNE 28 39 15 21 1005.6 1005.6 0.0
28/08:30am 13.5 8.6 8.4 71 2.6 NNE 24 30 13 16 1006.6 1006.6 0.0
28/08:00am 11.9 7.8 8.6 80 1.6 NNE 20 32 11 17 1007.1 1007.1 0.0
28/07:30am 10.1 6.7 9.0 93 0.5 NNE 17 22 9 12 1007.7 1007.7 0.0
28/07:00am 8.3 6.1 7.9 97 0.2 NE 9 15 5 8 1008.3 1008.3 0.0
28/06:30am 6.6 4.0 6.3 98 0.1 NE 9 11 5 6 1008.5 1008.5 0.0
28/06:00am 6.5 3.9 6.1 97 0.2 NNE 9 11 5 6 1008.7 1008.7 0.0
28/05:30am 7.1 4.2 6.7 97 0.2 NNE 11 17 6 9 1008.8 1008.8 0.0
28/05:00am 7.5 4.4 7.2 98 0.1 NNE 13 17 7 9 1009.0 1009.0 0.0
28/04:30am 7.6 4.9 7.2 97 0.2 NNE 11 13 6 7 1009.2 1009.2 0.0
28/04:00am 8.0 5.4 7.6 97 0.2 NE 11 13 6 7 1009.2 1009.2 0.0
28/03:30am 6.9 4.9 6.3 96 0.3 N 6 7 3 4 1009.4 1009.4 0.0
28/03:00am 7.6 5.6 7.0 96 0.3 N 7 9 4 5 1009.9 1009.9 0.0
28/02:30am 8.3 6.6 7.5 95 0.4 N 6 7 3 4 1010.1 1010.1 0.0
28/02:00am 9.0 7.4 7.9 93 0.5 N 6 7 3 4 1010.4 1010.4 0.0
28/01:30am 10.5 9.0 9.3 92 0.6 NNW 7 9 4 5 1010.7 1010.7 0.0
28/01:00am 12.0 10.1 10.6 91 0.7 NNW 11 17 6 9 1011.0 1011.0 0.0
28/12:30am 12.3 9.7 10.7 90 0.8 NW 15 19 8 10 1011.3 1011.3 0.0
28/12:00am 12.7 10.2 11.1 90 0.8 NW 15 19 8 10 1011.5 1011.5 0.0
 
Date/Time
CST
Temp
°C
App
Temp
°C
Dew
Point
°C
Rel
Hum
%
Delta-T
°C
Wind Press
QNH
hPa
Press
MSL
hPa
Rain since
9am
mm
Dir  Spd
km/h
Gust
km/h
Spd
kts
Gust
kts
27/11:30pm 12.7 10.6 11.1 90 0.8 NNW 13 17 7 9 1011.7 1011.7 0.0
27/11:00pm 12.9 10.8 11.1 89 0.9 NNW 13 19 7 10 1011.9 1011.9 0.0
27/10:30pm 12.4 9.7 10.5 88 1.0 NNW 15 20 8 11 1012.0 1012.0 0.0
27/10:00pm 12.8 9.9 10.9 88 1.0 NNW 17 24 9 13 1012.2 1012.2 0.0
27/09:30pm 13.1 9.9 11.3 89 1.0 NNW 19 28 10 15 1012.2 1012.2 0.0
27/09:00pm 13.2 9.8 10.6 84 1.4 NNW 19 26 10 14 1012.3 1012.3 0.0
27/08:30pm 13.0 9.6 11.1 88 1.0 NNW 20 26 11 14 1012.2 1012.2 0.0
27/08:00pm 12.7 10.1 10.6 87 1.1 N 15 20 8 11 1012.3 1012.3 0.0
27/07:30pm 12.7 10.1 10.6 87 1.1 N 15 20 8 11 1012.3 1012.3 0.0
27/07:00pm 12.7 10.0 10.2 85 1.3 NNW 15 20 8 11 1012.3 1012.3 0.0
27/06:30pm 12.9 9.4 10.3 84 1.3 NNW 19 24 10 13 1012.4 1012.4 0.0
27/06:00pm 12.9 9.2 10.3 84 1.3 NNW 20 28 11 15 1012.4 1012.4 0.0
27/05:30pm 13.1 9.4 9.5 79 1.8 NW 19 24 10 13 1012.3 1012.3 0.0
27/05:00pm 13.5 9.6 9.6 77 2.0 NW 20 30 11 16 1012.3 1012.3 0.0
27/04:30pm 14.0 9.8 9.6 75 2.3 NW 22 28 12 15 1012.5 1012.5 0.0
27/04:00pm 14.7 10.6 10.1 74 2.4 NW 22 30 12 16 1012.6 1012.6 0.0
27/03:30pm 15.1 11.1 10.3 73 2.5 NW 22 32 12 17 1012.5 1012.5 0.0
27/03:00pm 14.3 10.1 9.7 74 2.4 NW 22 32 12 17 1012.6 1012.6 0.0
27/02:30pm 13.9 9.2 9.1 73 2.4 NW 24 32 13 17 1012.7 1012.7 0.0
27/02:00pm 14.9 9.9 9.7 71 2.7 NW 26 33 14 18 1012.8 1012.8 0.0
27/01:30pm 14.6 10.1 10.0 74 2.4 NW 24 35 13 19 1012.9 1012.9 0.0
27/01:00pm 13.8 9.2 9.6 76 2.2 NW 24 37 13 20 1013.1 1013.1 0.0
27/12:30pm 15.3 9.8 9.2 67 3.1 NW 28 37 15 20 1013.3 1013.3 0.0
27/12:00pm 13.9 9.7 9.7 76 2.2 NW 22 28 12 15 1013.4 1013.4 0.0
27/11:30am 15.2 10.6 9.8 70 2.8 NW 24 33 13 18 1013.5 1013.5 0.0
27/11:00am 15.4 11.7 10.0 70 2.8 NW 20 32 11 17 1013.6 1013.6 0.0
27/10:30am 15.3 11.3 9.2 67 3.1 WNW 20 32 11 17 1013.8 1013.8 0.0
27/10:00am 14.1 9.8 7.9 66 3.1 WNW 20 28 11 15 1014.0 1014.0 0.0
27/09:30am 12.5 10.1 8.8 78 1.8 NW 11 17 6 9 1014.2 1014.2 0.0
27/09:00am 13.5 9.6 8.6 72 2.5 NW 19 28 10 15 1014.1 1014.1 3.4
27/08:30am 13.0 9.2 7.5 69 2.7 WNW 17 28 9 15 1013.8 1013.8 3.4
27/08:00am 12.5 8.7 7.6 72 2.4 WNW 17 26 9 14 1013.6 1013.6 3.4
27/07:30am 12.6 9.3 6.2 65 3.0 W 13 22 7 12 1013.1 1013.1 3.4
27/07:00am 12.1 8.6 5.3 63 3.1 W 13 20 7 11 1012.9 1012.9 3.4
27/06:30am 11.0 7.3 4.2 63 3.0 W 13 19 7 10 1012.7 1012.7 3.4
27/06:00am 10.5 7.4 3.5 62 3.1 W 9 17 5 9 1012.5 1012.5 3.4
27/05:30am 10.3 7.3 4.0 65 2.8 W 9 19 5 10 1012.3 1012.3 3.4
27/05:00am 10.6 6.3 3.4 61 3.1 W 15 24 8 13 1012.0 1012.0 3.4
27/04:30am 10.8 6.4 2.9 58 3.4 WSW 15 26 8 14 1011.7 1011.7 3.4
27/04:00am 10.9 7.1 4.1 63 3.0 W 13 20 7 11 1011.6 1011.6 3.4
27/03:30am 10.7 6.1 3.7 62 3.1 WSW 17 28 9 15 1011.7 1011.7 3.4
27/03:00am 10.5 5.9 3.5 62 3.1 WSW 17 30 9 16 1011.8 1011.8 3.4
27/02:30am 10.7 6.2 4.0 63 3.0 WSW 17 30 9 16 1011.8 1011.8 3.4
27/02:00am 10.9 6.9 5.0 67 2.7 WSW 15 26 8 14 1011.9 1011.9 3.4
27/01:30am 10.8 6.4 4.7 66 2.8 WSW 17 30 9 16 1011.9 1011.9 3.4
27/01:00am 11.0 6.7 5.1 67 2.7 WSW 17 30 9 16 1012.1 1012.1 3.4
27/12:30am 10.9 6.2 5.2 68 2.6 WSW 19 32 10 17 1011.8 1011.8 3.4
27/12:00am 11.2 6.8 6.5 73 2.2 WSW 19 33 10 18 1011.5 1011.5 3.4
 
Date/Time
CST
Temp
°C
App
Temp
°C
Dew
Point
°C
Rel
Hum
%
Delta-T
°C
Wind Press
QNH
hPa
Press
MSL
hPa
Rain since
9am
mm
Dir  Spd
km/h
Gust
km/h
Spd
kts
Gust
kts
26/11:30pm 11.1 7.7 7.8 80 1.6 WSW 15 30 8 16 1011.4 1011.4 3.4
26/11:00pm 10.3 6.0 7.2 81 1.5 WSW 19 37 10 20 1011.6 1011.6 3.4
26/10:30pm 10.9 6.6 6.8 76 1.9 WSW 19 32 10 17 1011.5 1011.5 3.4
26/10:00pm 11.6 7.6 6.7 72 2.3 W 17 24 9 13 1011.4 1011.4 3.4
26/09:30pm 11.0 7.3 6.4 73 2.2 W 15 24 8 13 1011.3 1011.3 3.4
26/09:00pm 11.0 7.2 5.7 70 2.5 WSW 15 26 8 14 1011.2 1011.2 3.4
26/08:30pm 11.0 7.0 4.7 65 2.8 WSW 15 24 8 13 1011.2 1011.2 3.4
26/08:00pm 10.7 6.8 5.3 69 2.5 WSW 15 24 8 13 1010.9 1010.9 3.4

Other Formats:

Comma delimited format used in spreadsheet applications
http://www.bom.gov.au/fwo/IDS60801/IDS60801.95816.axf

JavaScript Object Notation format (JSON) in row-major order
http://www.bom.gov.au/fwo/IDS60801/IDS60801.95816.json